createdAt,value
2019-03-08T10:10:58.920Z,0.30
2019-03-08T10:13:45.103Z,0.40
2019-03-08T10:16:23.999Z,0.90
2019-03-08T10:19:02.684Z,0.40
2019-03-08T10:21:48.010Z,0.70
2019-03-08T10:24:20.520Z,0.60
2019-03-08T10:26:53.498Z,0.77
2019-03-08T10:29:23.600Z,0.53
2019-03-08T10:31:59.770Z,0.70
2019-03-08T10:34:32.539Z,0.40
2019-03-08T10:37:08.691Z,0.47
2019-03-08T10:39:38.757Z,0.73
2019-03-08T10:42:09.090Z,0.53
2019-03-08T10:44:54.826Z,0.50
2019-03-08T10:47:39.671Z,0.37
2019-03-08T10:50:18.144Z,0.40
2019-03-08T10:52:48.231Z,0.40
2019-03-08T10:55:29.937Z,0.50
2019-03-08T10:58:16.424Z,0.67
2019-03-08T11:00:49.574Z,0.40
2019-03-08T11:03:34.951Z,0.50
2019-03-08T11:06:05.444Z,0.30
2019-03-08T11:08:35.532Z,0.73
2019-03-08T11:11:20.731Z,0.37
2019-03-08T11:14:07.098Z,0.43
2019-03-08T11:16:37.140Z,0.33
2019-03-08T11:19:23.077Z,0.40
2019-03-08T11:21:58.899Z,0.57
2019-03-08T11:24:41.191Z,0.63
2019-03-08T11:27:24.872Z,0.60
2019-03-08T11:29:57.939Z,0.60
2019-03-08T11:32:28.055Z,0.50
2019-03-08T11:35:13.280Z,0.60
2019-03-08T11:37:43.330Z,0.60
2019-03-08T11:40:17.350Z,0.80
2019-03-08T11:42:47.484Z,0.83
2019-03-08T11:45:17.554Z,0.40
2019-03-08T11:47:56.940Z,0.53
2019-03-08T11:50:27.017Z,0.80
2019-03-08T11:53:13.124Z,0.50
2019-03-08T11:55:46.234Z,1.00
2019-03-08T11:58:27.800Z,0.90
2019-03-08T12:01:06.550Z,0.73
2019-03-08T12:03:36.628Z,0.90
2019-03-08T12:06:15.823Z,0.80
2019-03-08T12:08:48.611Z,0.73
2019-03-08T12:11:27.583Z,0.80
2019-03-08T12:14:06.639Z,1.33
2019-03-08T12:16:42.712Z,4.30
2019-03-08T12:19:12.852Z,1.40
2019-03-08T12:21:59.416Z,1.00
2019-03-08T12:24:29.446Z,0.87
2019-03-08T12:26:59.542Z,0.70
2019-03-08T12:29:35.910Z,0.80
2019-03-08T12:32:06.149Z,0.37
2019-03-08T12:34:45.386Z,0.20
2019-03-08T12:37:18.380Z,0.20
2019-03-08T12:39:50.918Z,1.00
2019-03-08T12:42:29.521Z,0.20
2019-03-08T12:45:15.782Z,0.30
2019-03-08T12:47:55.094Z,0.30
2019-03-08T12:50:41.668Z,0.20
2019-03-08T12:53:14.769Z,0.20
2019-03-08T12:55:54.030Z,0.30
2019-03-08T12:58:27.127Z,0.23
2019-03-08T13:01:02.942Z,0.30
2019-03-08T13:03:49.024Z,0.30
2019-03-08T13:06:19.115Z,0.40
2019-03-08T13:08:58.204Z,0.30
2019-03-08T13:11:32.906Z,0.40
2019-03-08T13:13:56.807Z,0.30
2019-03-08T13:16:25.208Z,0.30
2019-03-08T13:18:53.608Z,0.30
2019-03-08T13:21:22.060Z,0.40
2019-03-08T13:23:50.549Z,0.40
2019-03-08T13:26:19.125Z,0.40
2019-03-08T13:28:47.746Z,0.30
2019-03-08T13:31:16.198Z,0.30
2019-03-08T13:33:44.619Z,0.30
2019-03-08T13:36:13.081Z,0.40
2019-03-08T13:38:41.529Z,0.83
2019-03-08T13:41:09.970Z,0.40
2019-03-08T13:43:38.626Z,1.83
2019-03-08T13:46:07.104Z,0.50
2019-03-08T13:48:35.498Z,0.60
2019-03-08T13:51:03.946Z,0.37
2019-03-08T13:53:32.364Z,0.30
2019-03-08T13:56:00.782Z,0.40
2019-03-08T13:58:29.353Z,0.33
2019-03-08T14:00:57.847Z,0.40
2019-03-08T14:03:26.284Z,0.50
2019-03-08T14:05:54.696Z,0.50
2019-03-08T14:08:23.097Z,0.40
2019-03-08T14:10:51.490Z,0.57
2019-03-08T14:13:20.190Z,0.60
2019-03-08T14:15:48.596Z,0.50
2019-03-08T14:18:16.978Z,0.33
2019-03-08T14:20:45.445Z,0.10
2019-03-08T14:23:13.837Z,0.37
2019-03-08T14:25:42.311Z,0.20
2019-03-08T14:28:11.001Z,0.80
2019-03-08T14:30:41.102Z,2.53
2019-03-08T14:33:09.626Z,0.60
2019-03-08T14:35:38.788Z,0.47
2019-03-08T14:38:07.875Z,0.50
2019-03-08T14:40:47.002Z,0.43
2019-03-08T14:43:17.876Z,0.60
2019-03-08T14:45:48.111Z,0.50
2019-03-08T14:48:16.518Z,0.60
2019-03-08T14:50:44.956Z,0.50
2019-03-08T14:53:13.666Z,0.60
2019-03-08T14:55:42.079Z,1.50
2019-03-08T14:58:10.547Z,0.90
2019-03-08T15:00:39.018Z,0.70
2019-03-08T15:03:07.506Z,0.47
2019-03-08T15:05:35.933Z,0.80
2019-03-08T15:08:04.435Z,0.70
2019-03-08T15:10:39.526Z,0.70
2019-03-08T15:13:02.989Z,0.70
2019-03-08T15:15:31.721Z,0.60
2019-03-08T15:18:00.204Z,0.63
2019-03-08T15:20:28.880Z,0.37
2019-03-08T15:22:57.292Z,0.80
2019-03-08T15:25:25.826Z,1.07
2019-03-08T15:27:57.302Z,1.23
2019-03-08T15:30:25.792Z,0.87
2019-03-08T15:32:54.201Z,0.63
2019-03-08T15:35:22.618Z,0.83
2019-03-08T15:37:51.062Z,0.90
2019-03-08T15:40:21.183Z,0.63
2019-03-08T15:42:49.791Z,0.60
2019-03-08T15:45:18.859Z,0.60
2019-03-08T15:47:47.399Z,0.57
2019-03-08T15:50:20.634Z,0.80
2019-03-08T15:52:51.357Z,0.70
2019-03-08T15:55:19.593Z,0.40
2019-03-08T15:57:48.250Z,0.60
2019-03-08T16:00:21.039Z,0.53
2019-03-08T16:02:49.877Z,0.60
2019-03-08T16:05:19.426Z,0.80
2019-03-08T16:07:47.972Z,1.03
2019-03-08T16:10:19.289Z,0.60
2019-03-08T16:12:47.968Z,0.70
2019-03-08T16:15:16.526Z,1.80
2019-03-08T16:17:45.009Z,0.60
2019-03-08T16:20:16.416Z,0.70
2019-03-08T16:22:44.875Z,0.70
2019-03-08T16:25:15.805Z,0.80
2019-03-08T16:27:44.256Z,0.83
2019-03-08T16:30:22.945Z,0.87
2019-03-08T16:32:52.985Z,1.03
2019-03-08T16:35:21.315Z,0.90
2019-03-08T16:38:11.349Z,0.70
2019-03-08T16:40:41.241Z,1.00
2019-03-08T16:43:11.060Z,0.53
2019-03-08T16:45:43.615Z,0.87
2019-03-08T16:48:13.422Z,1.73
2019-03-08T16:51:01.324Z,1.00
2019-03-08T16:53:47.574Z,0.87
2019-03-08T16:56:17.615Z,0.50
2019-03-08T16:58:50.397Z,1.00
2019-03-08T17:01:36.708Z,1.20
2019-03-08T17:04:06.850Z,1.30
2019-03-08T17:06:45.501Z,1.10
2019-03-08T17:09:18.593Z,1.13
2019-03-08T17:11:57.375Z,1.13
2019-03-08T17:14:30.159Z,1.37
2019-03-08T17:17:16.675Z,2.90
2019-03-08T17:19:46.707Z,0.93
2019-03-08T17:22:22.857Z,1.20
2019-03-08T17:24:58.445Z,1.87
2019-03-08T17:27:34.551Z,1.27
2019-03-08T17:30:21.061Z,3.97
2019-03-08T17:33:03.197Z,2.60
2019-03-08T17:35:35.180Z,2.60
2019-03-08T17:38:20.438Z,3.60
2019-03-08T17:40:50.499Z,3.27
2019-03-08T17:43:20.821Z,2.17
2019-03-08T17:46:06.073Z,4.83
2019-03-08T17:51:23.074Z,4.40
2019-03-08T17:53:55.594Z,7.10
2019-03-08T17:56:41.829Z,5.00
2019-03-08T17:59:14.789Z,2.23
2019-03-08T18:01:47.780Z,2.40
2019-03-08T18:04:17.834Z,3.53
2019-03-08T18:07:02.949Z,2.80
2019-03-08T18:09:33.029Z,2.80
2019-03-08T18:12:05.744Z,3.83
2019-03-08T18:14:44.541Z,4.93
2019-03-08T18:17:14.586Z,4.37
2019-03-08T18:19:44.635Z,4.90
2019-03-08T18:22:17.427Z,5.77
2019-03-08T18:24:50.270Z,7.47
2019-03-08T18:27:22.766Z,7.93
2019-03-08T18:29:52.836Z,7.62
2019-03-08T18:32:25.944Z,12.77
2019-03-08T18:34:56.002Z,24.90
2019-03-08T18:37:35.344Z,18.10
2019-03-08T18:40:15.227Z,8.37
2019-03-08T18:43:01.046Z,8.60
2019-03-08T18:45:47.064Z,9.70
2019-03-08T18:48:19.741Z,8.43
2019-03-08T18:51:05.849Z,7.37
2019-03-08T18:53:35.868Z,7.03
2019-03-08T18:56:06.132Z,6.40
2019-03-08T18:58:41.864Z,6.10
2019-03-08T19:01:27.904Z,7.50
2019-03-08T19:04:01.062Z,6.50
2019-03-08T19:06:31.519Z,6.60
2019-03-08T19:09:01.563Z,6.87
2019-03-08T19:11:48.283Z,6.27
2019-03-08T19:14:20.764Z,5.20
2019-03-08T19:16:59.337Z,8.17
2019-03-08T19:19:34.954Z,7.07
2019-03-08T19:22:26.349Z,7.80
2019-03-08T19:24:54.476Z,8.13
2019-03-08T19:27:43.134Z,7.87
2019-03-08T19:30:17.545Z,8.23
2019-03-08T19:32:47.633Z,7.43
2019-03-08T19:35:33.969Z,7.03
2019-03-08T19:38:20.592Z,7.23
2019-03-08T19:40:53.731Z,7.63
2019-03-08T19:43:23.814Z,7.57
2019-03-08T19:46:09.083Z,8.50
2019-03-08T19:48:42.181Z,8.13
2019-03-08T19:51:12.777Z,8.90
2019-03-08T19:53:58.689Z,6.60
2019-03-08T19:56:28.733Z,7.63
2019-03-08T19:58:58.818Z,7.40
2019-03-08T20:01:41.180Z,6.87
2019-03-08T20:04:26.077Z,7.70
2019-03-08T20:06:56.130Z,9.33
2019-03-08T20:09:26.340Z,9.23
2019-03-08T20:12:07.930Z,8.80
2019-03-08T20:14:55.766Z,10.13
2019-03-08T20:17:34.905Z,10.63
2019-03-08T20:20:24.341Z,9.30
2019-03-08T20:22:54.658Z,9.30
2019-03-08T20:25:30.524Z,11.27
2019-03-08T20:28:00.679Z,19.13
2019-03-08T20:30:46.298Z,15.43
2019-03-08T20:33:32.310Z,16.00
2019-03-08T20:36:18.927Z,12.27
2019-03-08T20:38:51.739Z,15.83
2019-03-08T20:41:21.815Z,13.00
2019-03-08T20:43:54.862Z,12.63
2019-03-08T20:46:27.785Z,10.80
2019-03-08T20:48:56.470Z,11.70
2019-03-08T20:51:25.005Z,12.53
2019-03-08T20:53:53.421Z,9.80
2019-03-08T20:56:22.113Z,8.20
2019-03-08T20:58:50.535Z,7.97
2019-03-08T21:03:45.870Z,7.13
2019-03-08T21:06:14.290Z,7.40
2019-03-08T21:08:42.782Z,5.90
2019-03-08T21:11:11.215Z,6.47
2019-03-08T21:13:39.874Z,4.83
2019-03-08T21:16:08.631Z,4.97
2019-03-08T21:18:37.028Z,4.70
2019-03-08T21:21:05.500Z,5.03
2019-03-08T21:23:33.925Z,5.60
2019-03-08T21:26:02.345Z,5.53
2019-03-08T21:28:30.836Z,5.97
2019-03-08T21:30:59.230Z,5.23
2019-03-08T21:33:27.700Z,5.30
2019-03-08T21:35:56.124Z,5.30
2019-03-08T21:38:24.636Z,6.33
2019-03-08T21:40:53.087Z,7.87
2019-03-08T21:43:21.513Z,6.47
2019-03-08T21:45:49.887Z,5.80
2019-03-08T21:48:18.317Z,5.40
2019-03-08T21:50:46.786Z,5.83
2019-03-08T21:53:15.220Z,6.37
2019-03-08T21:55:43.704Z,5.60
2019-03-08T21:58:12.141Z,6.63
2019-03-08T22:00:40.795Z,6.93
2019-03-08T22:03:09.318Z,9.43
2019-03-08T22:05:39.386Z,8.30
2019-03-08T22:08:16.994Z,7.97
2019-03-08T22:10:42.882Z,7.40
2019-03-08T22:13:11.629Z,6.80
2019-03-08T22:15:40.303Z,6.60
2019-03-08T22:20:43.095Z,5.87
2019-03-08T22:23:11.535Z,5.47
2019-03-08T22:25:40.083Z,5.10
2019-03-08T22:28:08.477Z,6.40
2019-03-08T22:30:36.962Z,7.73
2019-03-08T22:33:05.531Z,6.60
2019-03-08T22:35:34.109Z,3.50
2019-03-08T22:38:02.525Z,3.60
2019-03-08T22:40:31.123Z,2.50
2019-03-08T22:42:59.578Z,2.10
2019-03-08T22:45:28.067Z,2.60
2019-03-08T22:47:56.570Z,2.27
2019-03-08T22:50:25.021Z,1.97
2019-03-08T22:52:53.521Z,1.90
2019-03-08T22:55:21.940Z,1.63
2019-03-08T22:57:50.342Z,1.63
2019-03-08T23:00:35.118Z,2.23
2019-03-08T23:03:03.701Z,2.17
2019-03-08T23:05:32.168Z,2.07
2019-03-08T23:08:00.663Z,2.20
2019-03-08T23:10:29.125Z,2.50
2019-03-08T23:12:57.600Z,2.73
2019-03-08T23:15:26.074Z,2.97
2019-03-08T23:17:54.497Z,3.67
2019-03-08T23:20:22.885Z,2.90
2019-03-08T23:22:51.304Z,2.97
2019-03-08T23:25:19.691Z,2.73
2019-03-08T23:27:49.930Z,2.97
2019-03-08T23:30:19.988Z,3.97
2019-03-08T23:32:48.427Z,14.20
2019-03-08T23:35:16.896Z,2.33
2019-03-08T23:37:45.322Z,2.20
2019-03-08T23:40:14.151Z,2.13
2019-03-08T23:42:42.591Z,1.77
2019-03-08T23:45:11.134Z,1.97
2019-03-08T23:47:39.605Z,1.50
2019-03-08T23:50:09.672Z,2.10
2019-03-08T23:52:38.167Z,1.97
2019-03-08T23:55:09.583Z,2.00
2019-03-08T23:57:38.032Z,1.80
